Time;durP1;ratioP1;P1;durP2;ratioP2;P2;SDS_P1;SDS_P2;PMS_P1;PMS_P2;Temp;Humidity;BMP_temperature;BMP_pressure;BME280_temperature;BME280_humidity;BME280_pressure;Samples;Min_cycle;Max_cycle;Signal;HPM_P1;HPM_P2
2022/08/08 00:01:43;;;;;;;7.68;7.38;;;;;;;-143.83;100.00;62900.06;5110657;28;20028;-70
2022/08/08 00:04:21;;;;;;;7.77;7.47;;;;;;;-143.83;100.00;62900.06;5111510;28;20030;-70
2022/08/08 00:07:06;;;;;;;7.75;7.45;;;;;;;-143.83;100.00;62900.06;5107066;28;20039;-69
2022/08/08 00:09:37;;;;;;;7.80;7.50;;;;;;;-143.83;100.00;62900.06;5111928;28;20023;-68
2022/08/08 00:12:08;;;;;;;7.90;7.60;;;;;;;-143.83;100.00;62900.06;5110633;28;20448;-68
2022/08/08 00:14:58;;;;;;;7.80;7.50;;;;;;;-143.83;100.00;62900.06;5111671;28;20038;-66
2022/08/08 00:17:47;;;;;;;7.70;7.40;;;;;;;-143.83;100.00;62900.06;5110290;28;20031;-68
2022/08/08 00:20:16;;;;;;;7.78;7.47;;;;;;;-143.83;100.00;62900.06;5109039;28;20063;-67
2022/08/08 00:22:44;;;;;;;7.63;7.32;;;;;;;-143.83;100.00;62900.06;5113511;28;20382;-66
2022/08/08 00:25:15;;;;;;;7.68;7.38;;;;;;;-143.83;100.00;62900.06;5115689;28;20026;-67
2022/08/08 00:27:41;;;;;;;7.78;7.47;;;;;;;-143.83;100.00;62900.06;5115585;28;20027;-67
2022/08/08 00:30:09;;;;;;;7.63;7.32;;;;;;;-143.83;100.00;62900.06;5114942;27;20016;-67
2022/08/08 00:32:41;;;;;;;7.93;7.63;;;;;;;-143.83;100.00;62900.06;5115344;28;20495;-68
2022/08/08 00:35:33;;;;;;;8.02;7.68;;;;;;;-143.83;100.00;62900.06;5115359;28;20019;-67
2022/08/08 00:38:10;;;;;;;7.57;7.28;;;;;;;-143.83;100.00;62900.06;5103573;28;20028;-67
2022/08/08 00:41:08;;;;;;;7.40;7.10;;;;;;;-143.83;100.00;62900.06;5115596;28;20428;-67
2022/08/08 00:43:47;;;;;;;7.70;7.40;;;;;;;-143.83;100.00;62900.06;5074246;27;20111;-68
2022/08/08 00:46:43;;;;;;;7.72;7.43;;;;;;;-143.83;100.00;62900.06;5094782;28;20032;-67
2022/08/08 00:49:33;;;;;;;7.88;7.57;;;;;;;-143.83;100.00;62900.06;5107928;27;20023;-68
2022/08/08 00:52:18;;;;;;;7.55;7.25;;;;;;;-143.83;100.00;62900.06;5114204;28;20062;-67
2022/08/08 00:55:05;;;;;;;7.80;7.50;;;;;;;-143.83;100.00;62900.06;5115054;28;20024;-67
2022/08/08 00:57:34;;;;;;;7.70;7.40;;;;;;;-143.83;100.00;62900.06;5114173;28;20051;-67
2022/08/08 01:00:02;;;;;;;7.72;7.43;;;;;;;-143.83;100.00;62900.06;5114884;28;20030;-67
2022/08/08 01:02:58;;;;;;;8.00;7.70;;;;;;;-143.83;100.00;62900.06;5114042;28;20391;-67
2022/08/08 01:06:15;;;;;;;7.80;7.50;;;;;;;-143.83;100.00;62900.06;5116787;27;20076;-67
2022/08/08 01:09:07;;;;;;;7.70;7.40;;;;;;;-143.83;100.00;62900.06;5104177;28;20043;-67
2022/08/08 01:12:22;;;;;;;7.30;7.00;;;;;;;-143.83;100.00;62900.06;5115111;28;20027;-67
2022/08/08 01:15:12;;;;;;;7.80;7.50;;;;;;;-143.83;100.00;62900.06;5108896;28;20059;-68
2022/08/08 01:18:23;;;;;;;7.90;7.60;;;;;;;-143.83;100.00;62900.06;5114740;28;20032;-67
2022/08/08 01:21:06;;;;;;;7.65;7.35;;;;;;;-143.83;100.00;62900.06;5109540;28;20020;-66
2022/08/08 01:24:12;;;;;;;7.85;7.55;;;;;;;-143.83;100.00;62900.06;5114514;27;20035;-67
2022/08/08 01:27:11;;;;;;;7.50;7.20;;;;;;;-143.83;100.00;62900.06;5100467;28;20092;-68
2022/08/08 01:29:40;;;;;;;7.70;7.40;;;;;;;-143.83;100.00;62900.06;5114547;28;20080;-68
2022/08/08 01:32:24;;;;;;;7.60;7.30;;;;;;;-143.83;100.00;62900.06;5114463;28;20463;-67
2022/08/08 01:34:55;;;;;;;7.68;7.38;;;;;;;-143.83;100.00;62900.06;5114077;28;20050;-67
2022/08/08 01:37:58;;;;;;;7.72;7.43;;;;;;;-143.83;100.00;62900.06;5105971;28;20038;-67
2022/08/08 01:41:24;;;;;;;7.78;7.47;;;;;;;-143.83;100.00;62900.06;5107857;27;20023;-68
2022/08/08 01:44:02;;;;;;;7.90;7.60;;;;;;;-143.83;100.00;62900.06;5002754;28;20050;-68
2022/08/08 01:47:01;;;;;;;7.88;7.57;;;;;;;-143.83;100.00;62900.06;5100064;28;20036;-68
2022/08/08 01:49:50;;;;;;;7.65;7.35;;;;;;;-143.83;100.00;62900.06;5113858;28;20023;-68
2022/08/08 01:52:37;;;;;;;7.90;7.60;;;;;;;-143.83;100.00;62900.06;5106621;27;20499;-67
2022/08/08 01:55:14;;;;;;;8.60;8.20;;;;;;;-143.83;100.00;62900.06;5106210;28;20028;-67
2022/08/08 01:58:07;;;;;;;7.70;7.40;;;;;;;-143.83;100.00;62900.06;5113638;28;20023;-68
2022/08/08 02:00:48;;;;;;;8.75;8.35;;;;;;;-143.83;100.00;62900.06;5112814;28;20376;-67
2022/08/08 02:03:23;;;;;;;8.75;8.35;;;;;;;-143.83;100.00;62900.06;5109178;28;20092;-67
2022/08/08 02:05:56;;;;;;;;;;;;;;;-143.83;100.00;62900.06;5114156;28;20061;-69
2022/08/08 02:08:48;;;;;;;7.82;7.53;;;;;;;-143.83;100.00;62900.06;5113705;27;19907;-67
2022/08/08 02:11:30;;;;;;;7.78;7.47;;;;;;;-143.83;100.00;62900.06;5112771;28;20073;-67
2022/08/08 02:14:11;;;;;;;7.72;7.43;;;;;;;-143.83;100.00;62900.06;5113633;28;20487;-68
2022/08/08 02:16:54;;;;;;;7.85;7.55;;;;;;;-143.83;100.00;62900.06;5112939;28;20423;-67
2022/08/08 02:19:25;;;;;;;8.57;8.18;;;;;;;-143.83;100.00;62900.06;5113395;28;20024;-68
2022/08/08 02:24:49;;;;;;;7.72;7.43;;;;;;;-143.83;100.00;62900.06;5113618;28;20097;-67
2022/08/08 02:27:34;;;;;;;7.68;7.38;;;;;;;-143.83;100.00;62900.06;5099931;28;20051;-68
2022/08/08 02:30:16;;;;;;;8.00;7.70;;;;;;;-143.83;100.00;62900.06;5102525;28;20088;-66
2022/08/08 02:32:57;;;;;;;8.15;7.75;;;;;;;-143.83;100.00;62900.06;5105259;28;20038;-67
2022/08/08 02:35:53;;;;;;;8.18;7.78;;;;;;;-143.83;100.00;62900.06;5100838;28;20534;-67
2022/08/08 02:38:37;;;;;;;7.80;7.50;;;;;;;-143.83;100.00;62900.06;5113145;28;20031;-68
2022/08/08 02:41:26;;;;;;;7.68;7.38;;;;;;;-143.83;100.00;62900.06;5112923;28;20076;-68
2022/08/08 02:43:58;;;;;;;7.90;7.60;;;;;;;-143.83;100.00;62900.06;5113048;28;20075;-67
2022/08/08 02:46:47;;;;;;;8.15;7.75;;;;;;;-143.83;100.00;62900.06;5111041;28;20493;-68
2022/08/08 02:49:25;;;;;;;7.68;7.38;;;;;;;-143.83;100.00;62900.06;5100220;28;20027;-67
2022/08/08 02:52:08;;;;;;;7.93;7.60;;;;;;;-143.83;100.00;62900.06;5111823;28;20023;-67
2022/08/08 02:54:58;;;;;;;7.83;7.53;;;;;;;-143.83;100.00;62900.06;5112936;28;20394;-68
2022/08/08 02:57:27;;;;;;;7.93;7.63;;;;;;;-143.83;100.00;62900.06;5101263;28;20051;-67
2022/08/08 03:00:14;;;;;;;7.93;7.63;;;;;;;-143.83;100.00;62900.06;5112899;28;20034;-67
2022/08/08 03:03:14;;;;;;;7.70;7.40;;;;;;;-143.83;100.00;62900.06;5100717;28;20023;-67
2022/08/08 03:06:17;;;;;;;7.72;7.43;;;;;;;-143.83;100.00;62900.06;5114267;27;20031;-68
2022/08/08 03:08:45;;;;;;;8.25;7.85;;;;;;;-143.83;100.00;62900.06;5112504;28;20034;-68
2022/08/08 03:11:38;;;;;;;7.50;7.20;;;;;;;-143.83;100.00;62900.06;5112443;28;20027;-67
2022/08/08 03:14:03;;;;;;;7.80;7.50;;;;;;;-143.83;100.00;62900.06;5112088;28;20027;-67
2022/08/08 03:16:40;;;;;;;7.85;7.55;;;;;;;-143.83;100.00;62900.06;5112274;28;20026;-68
2022/08/08 03:19:34;;;;;;;7.80;7.50;;;;;;;-143.83;100.00;62900.06;5110502;28;20036;-68
2022/08/08 03:21:59;;;;;;;8.35;7.95;;;;;;;-143.83;100.00;62900.06;5115006;27;20023;-67
2022/08/08 03:24:24;;;;;;;7.80;7.50;;;;;;;-143.83;100.00;62900.06;5112327;28;20075;-67
2022/08/08 03:27:17;;;;;;;7.82;7.53;;;;;;;-143.83;100.00;62900.06;5112258;28;20062;-68
2022/08/08 03:29:50;;;;;;;7.90;7.60;;;;;;;-143.83;100.00;62900.06;5111851;28;20035;-68
2022/08/08 03:35:04;;;;;;;8.18;7.78;;;;;;;-143.83;100.00;62900.06;5110216;28;20034;-68
2022/08/08 03:37:30;;;;;;;8.13;7.75;;;;;;;-143.83;100.00;62900.06;5110890;28;20446;-68
2022/08/08 03:39:59;;;;;;;7.97;7.68;;;;;;;-143.83;100.00;62900.06;5111881;28;20067;-67
2022/08/08 03:42:25;;;;;;;7.78;7.47;;;;;;;-143.83;100.00;62900.06;5112021;28;20023;-69
2022/08/08 03:44:51;;;;;;;7.70;7.40;;;;;;;-143.83;100.00;62900.06;5111731;28;20049;-69
2022/08/08 03:47:21;;;;;;;7.45;7.15;;;;;;;-143.83;100.00;62900.06;5111104;28;20032;-69
2022/08/08 03:49:48;;;;;;;8.30;7.90;;;;;;;-143.83;100.00;62900.06;5112144;28;20158;-68
2022/08/08 03:52:14;;;;;;;7.78;7.47;;;;;;;-143.83;100.00;62900.06;5111847;28;20035;-67
2022/08/08 03:54:44;;;;;;;7.90;7.60;;;;;;;-143.83;100.00;62900.06;5109422;28;20130;-68
2022/08/08 03:57:12;;;;;;;7.82;7.53;;;;;;;-143.83;100.00;62900.06;5114338;28;20482;-68
2022/08/08 03:59:38;;;;;;;7.70;7.40;;;;;;;-143.83;100.00;62900.06;5116162;28;20034;-68
2022/08/08 04:02:16;;;;;;;7.95;7.65;;;;;;;-143.83;100.00;62900.06;5109616;28;20350;-68
2022/08/08 04:04:41;;;;;;;8.27;7.88;;;;;;;-143.83;100.00;62900.06;5109339;28;20383;-67
2022/08/08 04:07:07;;;;;;;8.13;7.75;;;;;;;-143.83;100.00;62900.06;5113552;28;20030;-68
2022/08/08 04:09:32;;;;;;;7.80;7.50;;;;;;;-143.83;100.00;62900.06;5114987;28;20035;-68
2022/08/08 04:12:01;;;;;;;7.95;7.65;;;;;;;-143.83;100.00;62900.06;5107826;28;20028;-67
2022/08/08 04:14:27;;;;;;;8.60;8.20;;;;;;;-143.83;100.00;62900.06;5117527;27;20020;-67
2022/08/08 04:16:53;;;;;;;7.82;7.53;;;;;;;-143.83;100.00;62900.06;5115473;28;20026;-68
2022/08/08 04:19:18;;;;;;;7.75;7.45;;;;;;;-143.83;100.00;62900.06;5114356;28;20015;-68
2022/08/08 04:21:44;;;;;;;7.90;7.60;;;;;;;-143.83;100.00;62900.06;5115581;28;20122;-67
2022/08/08 04:24:09;;;;;;;7.97;7.68;;;;;;;-143.83;100.00;62900.06;5115916;28;20061;-68
2022/08/08 04:26:35;;;;;;;7.93;7.63;;;;;;;-143.83;100.00;62900.06;5114540;28;20609;-67
2022/08/08 04:29:01;;;;;;;7.80;7.50;;;;;;;-143.83;100.00;62900.06;5119507;27;20034;-67
2022/08/08 04:31:26;;;;;;;8.20;7.80;;;;;;;-143.83;100.00;62900.06;5119587;27;20099;-69
2022/08/08 04:33:52;;;;;;;8.00;7.70;;;;;;;-143.83;100.00;62900.06;5124485;27;20371;-69
2022/08/08 04:36:17;;;;;;;8.30;7.90;;;;;;;-143.83;100.00;62900.06;5119861;27;20031;-68
2022/08/08 04:38:43;;;;;;;7.95;7.65;;;;;;;-143.83;100.00;62900.06;5114488;28;20047;-67
2022/08/08 04:41:09;;;;;;;8.25;7.85;;;;;;;-143.83;100.00;62900.06;5109524;28;20081;-68
2022/08/08 04:43:35;;;;;;;8.25;7.85;;;;;;;-143.83;100.00;62900.06;5111902;28;20048;-67
2022/08/08 04:46:00;;;;;;;8.23;7.82;;;;;;;-143.83;100.00;62900.06;5103866;28;20471;-69
2022/08/08 04:48:26;;;;;;;7.80;7.50;;;;;;;-143.83;100.00;62900.06;5114631;28;20043;-68
2022/08/08 04:50:52;;;;;;;7.70;7.40;;;;;;;-143.83;100.00;62900.06;5115060;28;20027;-66
2022/08/08 04:53:17;;;;;;;7.95;7.63;;;;;;;-143.83;100.00;62900.06;5114578;28;20034;-67
2022/08/08 04:55:43;;;;;;;8.50;8.10;;;;;;;-143.83;100.00;62900.06;5104749;28;20047;-68
2022/08/08 04:58:13;;;;;;;8.27;7.88;;;;;;;-143.83;100.00;62900.06;5110113;28;20055;-68
2022/08/08 05:00:42;;;;;;;8.90;8.50;;;;;;;-143.83;100.00;62900.06;5112584;28;20019;-68
2022/08/08 05:03:08;;;;;;;7.82;7.53;;;;;;;-143.83;100.00;62900.06;5113342;28;20031;-68
2022/08/08 05:05:33;;;;;;;7.75;7.45;;;;;;;-143.83;100.00;62900.06;5114122;28;20028;-68
2022/08/08 05:07:59;;;;;;;8.00;7.70;;;;;;;-143.83;100.00;62900.06;5113966;28;20027;-68
2022/08/08 05:10:28;;;;;;;8.45;8.05;;;;;;;-143.83;100.00;62900.06;5127861;27;20031;-68
2022/08/08 05:12:55;;;;;;;8.32;7.93;;;;;;;-143.83;100.00;62900.06;5112215;28;20030;-70
2022/08/08 05:15:21;;;;;;;8.23;7.82;;;;;;;-143.83;100.00;62900.06;5114592;28;20062;-68
2022/08/08 05:17:47;;;;;;;7.97;7.65;;;;;;;-143.83;100.00;62900.06;5113723;28;20076;-68
2022/08/08 05:20:12;;;;;;;8.00;7.70;;;;;;;-143.83;100.00;62900.06;5107688;28;20411;-68
2022/08/08 05:22:38;;;;;;;7.60;7.30;;;;;;;-143.83;100.00;62900.06;5114301;28;20023;-68
2022/08/08 05:25:05;;;;;;;8.32;7.93;;;;;;;-143.83;100.00;62900.06;5114242;27;20563;-68
2022/08/08 05:27:30;;;;;;;8.55;8.15;;;;;;;-143.83;100.00;62900.06;5114043;28;20038;-68
2022/08/08 05:29:56;;;;;;;7.60;7.30;;;;;;;-143.83;100.00;62900.06;5114711;28;20446;-67
2022/08/08 05:32:21;;;;;;;8.00;7.70;;;;;;;-143.83;100.00;62900.06;5113892;28;20019;-68
2022/08/08 05:34:50;;;;;;;8.20;7.80;;;;;;;-143.83;100.00;62900.06;5113148;28;20042;-67
2022/08/08 05:37:38;;;;;;;8.20;7.82;;;;;;;-143.83;100.00;62900.06;5106968;28;20032;-68
2022/08/08 05:40:05;;;;;;;7.85;7.55;;;;;;;-143.83;100.00;62900.06;5101660;28;20483;-68
2022/08/08 05:42:39;;;;;;;8.15;7.80;;;;;;;-143.83;100.00;62900.06;5114012;28;20028;-67
2022/08/08 05:45:06;;;;;;;8.23;7.88;;;;;;;-143.83;100.00;62900.06;5108079;28;20134;-68
2022/08/08 05:47:33;;;;;;;8.15;7.80;;;;;;;-143.83;100.00;62900.06;5112089;28;20106;-67
2022/08/08 05:50:03;;;;;;;7.53;7.22;;;;;;;-143.83;100.00;62900.06;5114042;28;20028;-67
2022/08/08 05:52:29;;;;;;;8.02;7.72;;;;;;;-143.83;100.00;62900.06;5112787;28;20042;-68
2022/08/08 05:54:54;;;;;;;7.80;7.50;;;;;;;-143.83;100.00;62900.06;5113783;28;20015;-67
2022/08/08 05:57:26;;;;;;;7.70;7.40;;;;;;;-143.83;100.00;62900.06;5114220;28;20030;-67
2022/08/08 05:59:54;;;;;;;7.90;7.60;;;;;;;-143.83;100.00;62900.06;5113995;28;20142;-68
2022/08/08 06:05:10;;;;;;;8.98;8.57;;;;;;;-143.83;100.00;62900.06;5100188;28;20065;-67
2022/08/08 06:07:39;;;;;;;8.20;7.82;;;;;;;-143.83;100.00;62900.06;5113746;28;20028;-68
2022/08/08 06:10:06;;;;;;;7.70;7.40;;;;;;;-143.83;100.00;62900.06;5112971;28;20098;-68
2022/08/08 06:12:33;;;;;;;7.60;7.30;;;;;;;-143.83;100.00;62900.06;5118206;27;20020;-68
2022/08/08 06:15:05;;;;;;;7.70;7.40;;;;;;;-143.83;100.00;62900.06;5113834;28;20360;-68
2022/08/08 06:17:33;;;;;;;7.70;7.40;;;;;;;-143.83;100.00;62900.06;5113525;28;20055;-68
2022/08/08 06:20:02;;;;;;;7.72;7.43;;;;;;;-143.83;100.00;62900.06;5112156;28;20477;-67
2022/08/08 06:22:27;;;;;;;8.40;8.00;;;;;;;-143.83;100.00;62900.06;5105502;27;20030;-67
2022/08/08 06:24:53;;;;;;;7.63;7.32;;;;;;;-143.83;100.00;62900.06;5105030;28;20028;-67
2022/08/08 06:27:26;;;;;;;7.80;7.50;;;;;;;-143.83;100.00;62900.06;5096513;28;20047;-67
2022/08/08 06:30:10;;;;;;;8.32;7.93;;;;;;;-143.83;100.00;62900.06;5109370;27;20092;-67
2022/08/08 06:32:56;;;;;;;8.30;7.90;;;;;;;-143.83;100.00;62900.06;5109354;27;20514;-66
2022/08/08 06:35:23;;;;;;;7.90;7.60;;;;;;;-143.83;100.00;62900.06;5108637;27;20024;-66
2022/08/08 06:37:51;;;;;;;8.45;8.05;;;;;;;-143.83;100.00;62900.06;5104833;28;20370;-66
2022/08/08 06:40:19;;;;;;;8.80;8.40;;;;;;;-143.83;100.00;62900.06;5098967;28;20043;-66
2022/08/08 06:43:02;;;;;;;8.10;7.80;;;;;;;21.44;100.00;101211.03;5095000;27;20400;-68
2022/08/08 06:45:31;;;;;;;8.13;7.72;;;;;;;21.57;100.00;101215.41;5065766;28;20040;-66
2022/08/08 06:47:57;;;;;;;7.65;7.35;;;;;;;21.61;100.00;101203.94;5068756;28;20115;-68
2022/08/08 06:50:24;;;;;;;7.80;7.50;;;;;;;21.69;100.00;101217.09;5067208;28;20112;-66
2022/08/08 06:52:51;;;;;;;8.25;7.85;;;;;;;21.28;100.00;101209.78;5065279;28;20832;-67
2022/08/08 06:55:18;;;;;;;8.00;7.70;;;;;;;21.54;100.00;101213.19;5074938;28;20032;-65
2022/08/08 06:57:43;;;;;;;7.80;7.50;;;;;;;21.72;100.00;101218.50;5081400;28;20036;-67
2022/08/08 07:00:09;;;;;;;8.18;7.88;;;;;;;21.69;100.00;101216.28;5064601;28;20056;-66
2022/08/08 07:02:40;;;;;;;7.50;7.20;;;;;;;21.50;100.00;101210.94;5066421;28;20588;-66
2022/08/08 07:05:08;;;;;;;7.80;7.50;;;;;;;21.76;100.00;101223.22;5068711;28;20071;-66
2022/08/08 07:08:02;;;;;;;7.85;7.55;;;;;;;21.77;100.00;101218.66;5071054;28;20444;-66
2022/08/08 07:10:34;;;;;;;8.18;7.82;;;;;;;22.13;100.00;101214.97;5062819;28;20051;-67
2022/08/08 07:13:08;;;;;;;8.40;8.00;;;;;;;22.06;100.00;101215.03;5064869;28;20033;-65
2022/08/08 07:15:42;;;;;;;7.78;7.47;;;;;;;22.27;100.00;101216.38;5067373;28;20060;-66
2022/08/08 07:18:09;;;;;;;8.07;7.78;;;;;;;22.17;100.00;101216.13;5065559;28;20064;-65
2022/08/08 07:20:37;;;;;;;7.90;7.60;;;;;;;22.32;100.00;101221.88;5068583;28;20024;-66
2022/08/08 07:23:08;;;;;;;8.10;7.80;;;;;;;22.22;100.00;101220.84;5081701;28;20032;-67
2022/08/08 07:25:42;;;;;;;7.70;7.40;;;;;;;22.26;100.00;101225.53;5063841;28;20024;-66
2022/08/08 07:28:14;;;;;;;7.70;7.40;;;;;;;22.20;100.00;101225.66;5063868;28;20112;-67
2022/08/08 07:30:41;;;;;;;7.88;7.57;;;;;;;22.12;100.00;101221.44;5067419;28;20063;-65
2022/08/08 07:33:10;;;;;;;7.50;7.20;;;;;;;22.27;100.00;101219.06;5070622;28;20056;-66
2022/08/08 07:35:37;;;;;;;8.40;8.00;;;;;;;22.19;100.00;101226.72;5067318;28;20033;-66
2022/08/08 07:38:04;;;;;;;7.68;7.38;;;;;;;22.26;100.00;101236.34;5074797;28;20067;-67
2022/08/08 07:40:30;;;;;;;7.70;7.40;;;;;;;22.51;100.00;101227.16;5062931;28;20048;-68
2022/08/08 07:42:55;;;;;;;7.55;7.25;;;;;;;22.31;100.00;101232.94;5064224;28;20066;-69
2022/08/08 07:45:22;;;;;;;8.25;7.88;;;;;;;22.23;100.00;101236.00;5072946;28;20021;-66
2022/08/08 07:47:47;;;;;;;7.80;7.50;;;;;;;22.32;100.00;101232.69;5066023;28;20083;-65
2022/08/08 07:50:14;;;;;;;7.72;7.43;;;;;;;22.43;100.00;101233.75;5067533;28;20040;-65
2022/08/08 07:52:45;;;;;;;7.70;7.40;;;;;;;22.22;100.00;101227.06;5061131;28;20025;-67
2022/08/08 07:55:25;;;;;;;8.05;7.75;;;;;;;22.34;100.00;101238.72;5052105;28;20058;-65
2022/08/08 07:58:08;;;;;;;7.60;7.30;;;;;;;22.38;100.00;101233.63;5050305;28;20488;-65
2022/08/08 08:00:51;;;;;;;8.30;7.90;;;;;;;22.57;100.00;101234.34;5065860;28;20065;-67
2022/08/08 08:03:31;;;;;;;8.68;8.27;;;;;;;22.65;100.00;101228.56;5048097;28;20029;-66
2022/08/08 08:05:59;;;;;;;7.82;7.53;;;;;;;22.74;100.00;101231.72;5053796;28;20025;-67
2022/08/08 08:08:29;;;;;;;7.70;7.40;;;;;;;22.80;100.00;101225.38;5056043;28;20028;-65
2022/08/08 08:10:58;;;;;;;8.52;8.13;;;;;;;22.72;100.00;101233.84;5051063;28;20025;-67
2022/08/08 08:13:30;;;;;;;8.10;7.80;;;;;;;22.91;100.00;101237.25;5052236;28;20033;-65
2022/08/08 08:16:03;;;;;;;7.80;7.50;;;;;;;23.06;100.00;101237.53;5051883;28;20029;-68
2022/08/08 08:18:40;;;;;;;7.90;7.60;;;;;;;22.85;100.00;101237.16;5051583;28;20029;-68
2022/08/08 08:21:07;;;;;;;7.72;7.43;;;;;;;23.04;100.00;101239.69;5049747;28;20742;-68
2022/08/08 08:23:32;;;;;;;8.60;8.20;;;;;;;23.23;100.00;101238.44;5052707;28;20116;-67
2022/08/08 08:25:58;;;;;;;7.75;7.45;;;;;;;23.27;100.00;101238.78;5048876;28;20108;-65
2022/08/08 08:28:24;;;;;;;7.63;7.32;;;;;;;23.14;100.00;101231.78;5051507;28;20122;-66
2022/08/08 08:30:50;;;;;;;7.60;7.30;;;;;;;23.17;100.00;101234.81;5057172;28;20024;-67
2022/08/08 08:33:16;;;;;;;8.30;7.93;;;;;;;23.53;100.00;101223.84;5051939;28;20033;-67
2022/08/08 08:35:41;;;;;;;8.00;7.70;;;;;;;23.56;100.00;101235.00;5051604;28;20031;-67
2022/08/08 08:38:07;;;;;;;7.88;7.57;;;;;;;24.05;100.00;101229.91;5061187;28;20395;-67
2022/08/08 08:40:33;;;;;;;7.80;7.50;;;;;;;24.26;100.00;101237.28;5036382;28;20033;-67
2022/08/08 08:42:59;;;;;;;7.82;7.53;;;;;;;24.41;100.00;101230.47;5054374;28;20399;-68
2022/08/08 08:45:25;;;;;;;7.40;7.10;;;;;;;24.67;100.00;101235.16;5052456;28;20106;-68
2022/08/08 08:47:52;;;;;;;8.35;7.97;;;;;;;24.41;100.00;101239.41;5051825;28;20077;-68
2022/08/08 08:50:18;;;;;;;7.97;7.68;;;;;;;24.51;100.00;101228.72;5062970;28;20404;-68
2022/08/08 08:52:45;;;;;;;7.80;7.50;;;;;;;24.85;100.00;101233.22;5051746;28;20104;-68
2022/08/08 08:55:14;;;;;;;7.68;7.38;;;;;;;24.88;100.00;101230.81;5045770;28;20020;-68
2022/08/08 08:57:42;;;;;;;8.00;7.70;;;;;;;25.10;100.00;101225.41;5046204;28;20037;-67
2022/08/08 09:00:09;;;;;;;8.02;7.72;;;;;;;24.72;100.00;101221.66;5047539;28;20448;-67
2022/08/08 09:02:37;;;;;;;8.10;7.80;;;;;;;24.65;100.00;101225.63;5061941;28;20052;-68
2022/08/08 09:05:06;;;;;;;7.32;7.03;;;;;;;25.21;100.00;101229.88;5051910;28;20567;-67
2022/08/08 09:07:33;;;;;;;7.50;7.20;;;;;;;25.43;100.00;101229.84;5051533;28;20119;-68
2022/08/08 09:09:59;;;;;;;7.68;7.38;;;;;;;25.22;100.00;101228.00;5052587;28;20021;-68
2022/08/08 09:12:26;;;;;;;8.63;8.23;;;;;;;24.20;100.00;101224.72;5048800;28;20016;-69
2022/08/08 09:14:54;;;;;;;7.60;7.30;;;;;;;25.78;100.00;101223.97;5045788;28;20033;-68
2022/08/08 09:17:23;;;;;;;8.07;7.78;;;;;;;25.59;100.00;101220.75;5049611;28;20027;-69
2022/08/08 09:19:52;;;;;;;7.65;7.35;;;;;;;26.19;100.00;101213.38;5041827;28;20021;-68
2022/08/08 09:22:20;;;;;;;7.80;7.50;;;;;;;26.29;100.00;101213.44;5054798;28;20048;-68
2022/08/08 09:24:46;;;;;;;7.88;7.57;;;;;;;26.27;100.00;101212.06;5048802;28;20558;-68
2022/08/08 09:27:12;;;;;;;7.50;7.20;;;;;;;27.38;100.00;101219.91;5050229;28;20033;-68
2022/08/08 09:29:50;;;;;;;7.60;7.30;;;;;;;27.12;100.00;101212.78;5051584;28;20025;-69
2022/08/08 09:32:33;;;;;;;7.57;7.28;;;;;;;26.85;100.00;101208.31;5051199;28;20033;-68
2022/08/08 09:35:00;;;;;;;7.85;7.55;;;;;;;27.24;100.00;101216.06;5046738;28;20043;-68
2022/08/08 09:37:28;;;;;;;7.70;7.40;;;;;;;28.11;100.00;101208.78;5056892;28;20021;-69
2022/08/08 09:40:00;;;;;;;7.72;7.43;;;;;;;26.40;100.00;101200.75;5049828;28;20036;-68
2022/08/08 09:42:32;;;;;;;7.40;7.10;;;;;;;27.79;100.00;101209.09;5048719;28;20044;-68
2022/08/08 09:45:03;;;;;;;7.70;7.40;;;;;;;27.94;100.00;101208.25;5042993;28;20032;-68
2022/08/08 09:47:31;;;;;;;7.80;7.50;;;;;;;27.55;100.00;101200.59;5074182;28;20023;-68
2022/08/08 09:49:58;;;;;;;7.22;6.93;;;;;;;27.83;100.00;101201.97;5065806;28;20036;-69
2022/08/08 09:52:30;;;;;;;7.40;7.10;;;;;;;28.47;100.00;101203.28;5050948;28;20500;-69
2022/08/08 09:54:57;;;;;;;7.45;7.15;;;;;;;28.31;100.00;101200.59;5050804;28;20034;-69
2022/08/08 09:57:45;;;;;;;7.53;7.22;;;;;;;28.25;100.00;101198.94;5051280;28;20025;-69
2022/08/08 10:00:12;;;;;;;7.60;7.30;;;;;;;28.38;100.00;101186.66;5048330;28;20516;-68
2022/08/08 10:02:41;;;;;;;7.43;7.13;;;;;;;27.91;100.00;101190.56;5055624;28;20059;-69
2022/08/08 10:05:18;;;;;;;7.43;7.13;;;;;;;28.13;100.00;101189.41;5057830;28;20025;-69
2022/08/08 10:08:04;;;;;;;7.13;6.82;;;;;;;28.77;100.00;101178.56;5050367;28;20448;-69
2022/08/08 10:10:37;;;;;;;7.50;7.20;;;;;;;28.11;100.00;101186.97;5046963;28;20021;-68
2022/08/08 10:13:19;;;;;;;7.43;7.13;;;;;;;27.94;100.00;101179.09;5045555;28;20021;-68
2022/08/08 10:15:47;;;;;;;7.53;7.22;;;;;;;28.20;100.00;101185.28;5045205;28;20099;-68
2022/08/08 10:18:26;;;;;;;7.35;7.05;;;;;;;27.95;100.00;101180.72;5048254;28;20039;-68
2022/08/08 10:20:57;;;;;;;7.47;7.18;;;;;;;27.51;100.00;101180.44;5043349;28;20038;-68
2022/08/08 10:23:53;;;;;;;7.50;7.20;;;;;;;27.69;100.00;101177.22;5042469;28;20544;-67
2022/08/08 10:26:23;;;;;;;7.60;7.30;;;;;;;27.02;100.00;101169.16;5045798;28;20040;-68
2022/08/08 10:29:04;;;;;;;7.60;7.30;;;;;;;26.90;100.00;101174.84;5051385;28;20032;-69
2022/08/08 10:34:18;;;;;;;7.20;6.90;;;;;;;26.72;100.00;101159.81;5047122;28;20032;-66
2022/08/08 10:36:44;;;;;;;7.50;7.20;;;;;;;26.49;100.00;101162.97;5060972;28;20028;-68
2022/08/08 10:39:15;;;;;;;7.78;7.47;;;;;;;27.12;100.00;101159.13;5057674;28;20115;-67
2022/08/08 10:41:45;;;;;;;7.88;7.57;;;;;;;27.23;100.00;101155.31;5049442;28;20624;-67
2022/08/08 10:44:11;;;;;;;7.97;7.68;;;;;;;27.11;100.00;101151.25;5065157;28;20028;-66
2022/08/08 10:46:37;;;;;;;7.63;7.32;;;;;;;25.74;100.00;101145.91;5053326;28;20485;-66
2022/08/08 10:49:02;;;;;;;7.30;7.00;;;;;;;26.84;100.00;101145.97;5054058;28;20301;-68
2022/08/08 10:51:34;;;;;;;7.50;7.20;;;;;;;27.07;100.00;101139.25;5057676;28;20404;-66
2022/08/08 10:53:59;;;;;;;7.70;7.40;;;;;;;26.77;100.00;101139.97;5049352;28;20021;-67
2022/08/08 10:56:31;;;;;;;8.00;7.70;;;;;;;26.13;100.00;101141.00;5049453;28;20074;-66
2022/08/08 10:59:00;;;;;;;7.30;7.00;;;;;;;26.82;100.00;101131.81;5055914;28;20028;-67
2022/08/08 11:01:30;;;;;;;7.43;7.13;;;;;;;26.97;100.00;101135.38;5056365;28;20082;-66
2022/08/08 11:03:59;;;;;;;7.55;7.25;;;;;;;26.75;100.00;101139.41;5050885;28;20033;-66
2022/08/08 11:06:33;;;;;;;7.65;7.35;;;;;;;26.74;100.00;101126.91;5049164;28;20415;-66
2022/08/08 11:09:07;;;;;;;8.00;7.70;;;;;;;26.99;100.00;101126.94;5054151;28;20704;-67
2022/08/08 11:11:45;;;;;;;7.50;7.20;;;;;;;27.16;100.00;101116.63;5054953;28;20025;-67
2022/08/08 11:14:13;;;;;;;7.95;7.65;;;;;;;27.27;100.00;101118.28;5052666;28;20086;-66
2022/08/08 11:16:41;;;;;;;7.88;7.57;;;;;;;27.27;100.00;101115.56;5050421;28;20025;-67
2022/08/08 11:19:08;;;;;;;7.50;7.20;;;;;;;27.04;100.00;101107.94;5048751;28;20086;-67
2022/08/08 11:21:44;;;;;;;7.20;6.90;;;;;;;27.16;100.00;101108.47;5048975;28;20024;-67
2022/08/08 11:24:11;;;;;;;8.02;7.72;;;;;;;27.36;100.00;101104.13;5047359;28;20024;-66
2022/08/08 11:26:40;;;;;;;7.53;7.22;;;;;;;27.39;100.00;101093.47;5059335;28;20388;-67
2022/08/08 11:29:07;;;;;;;7.38;7.07;;;;;;;27.36;100.00;101096.75;5051384;28;20841;-66
2022/08/08 11:31:38;;;;;;;7.25;6.95;;;;;;;27.31;100.00;101098.66;5052790;28;20021;-66
2022/08/08 11:34:05;;;;;;;7.70;7.40;;;;;;;27.49;100.00;101098.94;5053296;28;20032;-67
2022/08/08 11:36:32;;;;;;;7.75;7.45;;;;;;;27.44;100.00;101100.84;5057098;28;20750;-66
2022/08/08 11:38:58;;;;;;;7.43;7.13;;;;;;;27.82;100.00;101096.75;5052410;28;20036;-66
2022/08/08 11:41:25;;;;;;;7.50;7.20;;;;;;;27.88;100.00;101094.81;5055178;28;20118;-67
2022/08/08 11:43:52;;;;;;;7.60;7.30;;;;;;;27.80;100.00;101088.03;5051674;28;20750;-66
2022/08/08 11:46:19;;;;;;;7.68;7.38;;;;;;;27.48;100.00;101086.41;5056800;28;20032;-66
2022/08/08 11:48:46;;;;;;;7.78;7.47;;;;;;;27.47;100.00;101092.13;5052429;28;20143;-67
2022/08/08 11:51:13;;;;;;;7.90;7.60;;;;;;;27.59;100.00;101086.41;5051570;28;20024;-66